In Rescue
 
Open Full Screen Window  High Contrast Mode
Wind Gusting 00 knots
11
March 20, 2019 6:15 PM PDT
Weather Information
Wind Direction
  260 °
Wind Speed
  11 kt (13 mph)
Wind Gust
  00 kt (0 mph)
Altimeter
30.04 in
Visibility
10 SM
Temperature
14° C
57° F
Dewpoint
08° C
46° F
Humidity
67%
1hr Rain Fall
00.00 in.
24hr Rain Fall
00.11 in.
Sky Condition
Clear
VFR

METAR KCVH 210115Z AUTO 26011KT 10SM CLR 14/08 A3004 RMK A01

FAA Disclaimer: The data displayed is for advisory purposes only and is not to be used for flight planning or operations.